createdAt,value
2023-11-12T00:00:50.009Z,7.07
2023-11-12T00:03:36.314Z,7.65
2023-11-12T00:06:04.487Z,8.85
2023-11-12T00:08:32.991Z,7.53
2023-11-12T00:11:00.740Z,8.52
2023-11-12T00:13:28.113Z,8.25
2023-11-12T00:15:56.989Z,8.32
2023-11-12T00:18:25.063Z,8.10
2023-11-12T00:20:53.161Z,8.32
2023-11-12T00:23:25.631Z,7.78
2023-11-12T00:25:54.705Z,8.90
2023-11-12T00:28:22.092Z,9.43
2023-11-12T00:30:49.495Z,7.82
2023-11-12T00:33:17.013Z,8.85
2023-11-12T00:35:44.837Z,8.80
2023-11-12T00:38:15.578Z,7.07
2023-11-12T00:40:43.242Z,7.43
2023-11-12T00:43:10.595Z,9.15
2023-11-12T00:45:38.906Z,8.32
2023-11-12T00:48:07.041Z,8.82
2023-11-12T00:50:35.887Z,7.95
2023-11-12T00:53:03.531Z,8.65
2023-11-12T00:55:30.955Z,8.77
2023-11-12T00:57:58.247Z,9.02
2023-11-12T01:00:25.674Z,7.97
2023-11-12T01:02:53.020Z,8.93
2023-11-12T01:05:21.157Z,10.15
2023-11-12T01:07:48.760Z,8.45
2023-11-12T01:10:16.349Z,9.88
2023-11-12T01:12:43.812Z,10.95
2023-11-12T01:15:11.401Z,10.07
2023-11-12T01:17:39.211Z,12.30
2023-11-12T01:20:08.134Z,12.27
2023-11-12T01:22:35.634Z,7.35
2023-11-12T01:25:03.959Z,10.10
2023-11-12T01:27:31.355Z,10.00
2023-11-12T01:29:58.765Z,9.98
2023-11-12T01:32:27.673Z,7.53
2023-11-12T01:34:57.235Z,10.98
2023-11-12T01:37:24.737Z,10.05
2023-11-12T01:39:51.980Z,9.45
2023-11-12T01:42:20.465Z,10.73
2023-11-12T01:44:47.943Z,10.95
2023-11-12T01:47:15.884Z,10.23
2023-11-12T01:49:43.294Z,10.88
2023-11-12T01:52:12.694Z,10.18
2023-11-12T01:54:41.296Z,10.25
2023-11-12T01:57:09.381Z,10.88
2023-11-12T01:59:37.358Z,9.27
2023-11-12T02:02:05.694Z,9.27
2023-11-12T02:04:33.481Z,11.05
2023-11-12T02:07:03.000Z,10.73
2023-11-12T02:09:30.723Z,10.85
2023-11-12T02:11:58.562Z,9.77
2023-11-12T02:14:27.346Z,10.40
2023-11-12T02:16:56.783Z,10.65
2023-11-12T02:19:33.459Z,9.50
2023-11-12T02:22:00.762Z,10.23
2023-11-12T02:24:27.996Z,9.70
2023-11-12T02:26:55.521Z,10.63
2023-11-12T02:29:23.466Z,10.50
2023-11-12T02:31:51.374Z,8.02
2023-11-12T02:34:19.880Z,11.27
2023-11-12T02:36:47.777Z,12.68
2023-11-12T02:39:17.059Z,12.98
2023-11-12T02:41:46.101Z,10.10
2023-11-12T02:44:14.761Z,12.73
2023-11-12T02:46:43.062Z,13.10
2023-11-12T02:49:49.368Z,14.27
2023-11-12T02:52:16.976Z,11.88
2023-11-12T02:54:44.379Z,11.82
2023-11-12T02:57:11.798Z,12.18
2023-11-12T02:59:39.243Z,11.77
2023-11-12T03:02:25.237Z,11.48
2023-11-12T03:04:52.653Z,10.65
2023-11-12T03:07:20.282Z,9.95
2023-11-12T03:09:49.933Z,9.35
2023-11-12T03:12:17.422Z,11.68
2023-11-12T03:14:45.083Z,8.70
2023-11-12T03:17:12.346Z,10.10
2023-11-12T03:19:40.309Z,11.23
2023-11-12T03:22:10.342Z,8.32
2023-11-12T03:24:37.822Z,10.15
2023-11-12T03:27:05.394Z,8.00
2023-11-12T03:29:32.849Z,9.65
2023-11-12T03:32:00.471Z,8.75
2023-11-12T03:34:27.899Z,9.32
2023-11-12T03:36:55.307Z,8.27
2023-11-12T03:39:24.143Z,7.65
2023-11-12T03:41:52.388Z,7.10
2023-11-12T03:44:19.954Z,9.90
2023-11-12T03:46:47.354Z,8.18
2023-11-12T03:49:14.760Z,8.90
2023-11-12T03:51:42.954Z,7.20
2023-11-12T03:54:12.187Z,7.05
2023-11-12T03:56:39.972Z,8.00
2023-11-12T03:59:26.481Z,7.45
2023-11-12T04:01:53.803Z,8.07
2023-11-12T04:04:21.980Z,5.10
2023-11-12T04:06:49.864Z,7.13
2023-11-12T04:09:17.700Z,6.38
2023-11-12T04:11:45.386Z,7.22
2023-11-12T04:14:13.529Z,6.10
2023-11-12T04:16:42.248Z,6.32
2023-11-12T04:19:09.685Z,6.45
2023-11-12T04:21:37.481Z,6.25
2023-11-12T04:24:07.018Z,6.25
2023-11-12T04:26:35.003Z,7.50
2023-11-12T04:29:08.850Z,6.63
2023-11-12T04:31:37.515Z,6.47
2023-11-12T04:34:05.258Z,6.28
2023-11-12T04:40:14.659Z,7.32
2023-11-12T04:42:43.830Z,5.53
2023-11-12T04:45:12.382Z,6.90
2023-11-12T04:47:40.010Z,7.13
2023-11-12T04:50:08.251Z,5.78
2023-11-12T04:52:35.694Z,5.53
2023-11-12T04:55:03.132Z,7.03
2023-11-12T04:57:30.930Z,6.03
2023-11-12T04:59:59.719Z,5.68
2023-11-12T05:02:27.029Z,8.50
2023-11-12T05:04:54.590Z,7.05
2023-11-12T05:07:22.013Z,6.82
2023-11-12T05:09:49.619Z,7.15
2023-11-12T05:12:17.189Z,6.82
2023-11-12T05:14:44.614Z,7.95
2023-11-12T05:17:12.042Z,8.38
2023-11-12T05:19:58.021Z,7.68
2023-11-12T05:22:25.584Z,7.05
2023-11-12T05:24:52.944Z,7.57
2023-11-12T05:27:20.760Z,8.90
2023-11-12T05:29:48.443Z,7.13
2023-11-12T05:32:16.220Z,9.40
2023-11-12T05:34:43.405Z,7.10
2023-11-12T05:37:10.761Z,7.43
2023-11-12T05:39:38.233Z,6.32
2023-11-12T05:42:05.991Z,5.85
2023-11-12T05:44:34.103Z,7.35
2023-11-12T05:47:01.779Z,6.53
2023-11-12T05:49:29.035Z,6.93
2023-11-12T05:51:56.882Z,7.32
2023-11-12T05:54:43.302Z,8.32
2023-11-12T05:57:29.259Z,7.68
2023-11-12T05:59:56.824Z,7.18
2023-11-12T06:02:24.333Z,8.20
2023-11-12T06:04:51.812Z,6.20
2023-11-12T06:07:19.341Z,6.25
2023-11-12T06:10:05.714Z,6.75
2023-11-12T06:12:33.341Z,7.30
2023-11-12T06:15:00.807Z,6.70
2023-11-12T06:17:29.226Z,6.22
2023-11-12T06:19:56.760Z,6.93
2023-11-12T06:22:24.028Z,7.13
2023-11-12T06:24:51.365Z,5.68
2023-11-12T06:27:18.958Z,7.55
2023-11-12T06:29:47.916Z,6.85
2023-11-12T06:32:15.237Z,6.03
2023-11-12T06:34:42.720Z,5.88
2023-11-12T06:37:30.761Z,6.20
2023-11-12T06:39:58.137Z,5.38
2023-11-12T06:42:26.635Z,6.90
2023-11-12T06:44:54.844Z,6.05
2023-11-12T06:47:22.264Z,4.90
2023-11-12T06:49:49.840Z,6.97
2023-11-12T06:52:21.781Z,6.20
2023-11-12T06:54:49.139Z,6.25
2023-11-12T06:57:16.528Z,5.85
2023-11-12T06:59:43.947Z,5.82
2023-11-12T07:02:20.342Z,5.72
2023-11-12T07:04:49.390Z,5.10
2023-11-12T07:07:17.349Z,6.47
2023-11-12T07:09:47.778Z,7.72
2023-11-12T07:12:16.522Z,6.30
2023-11-12T07:14:46.371Z,6.40
2023-11-12T07:17:16.938Z,6.63
2023-11-12T07:19:44.663Z,5.63
2023-11-12T07:22:15.099Z,6.10
2023-11-12T07:24:42.726Z,4.88
2023-11-12T07:27:12.799Z,5.50
2023-11-12T07:29:40.294Z,7.38
2023-11-12T07:32:27.160Z,7.20
2023-11-12T07:34:54.498Z,6.90
2023-11-12T07:37:21.810Z,6.35
2023-11-12T07:39:49.626Z,5.15
2023-11-12T07:42:17.521Z,4.68
2023-11-12T07:44:44.757Z,4.90
2023-11-12T07:47:12.214Z,5.53
2023-11-12T07:49:39.661Z,5.30
2023-11-12T07:52:07.180Z,4.38
2023-11-12T07:54:34.400Z,5.72
2023-11-12T07:57:05.793Z,4.93
2023-11-12T07:59:39.793Z,5.75
2023-11-12T08:04:34.546Z,5.13
2023-11-12T08:07:02.204Z,5.45
2023-11-12T08:09:29.723Z,5.38
2023-11-12T08:11:57.644Z,4.28
2023-11-12T08:14:26.103Z,5.05
2023-11-12T08:16:53.873Z,5.65
2023-11-12T08:19:21.291Z,5.60
2023-11-12T08:21:48.957Z,5.35
2023-11-12T08:24:16.689Z,5.53
2023-11-12T08:26:44.389Z,5.78
2023-11-12T08:29:14.999Z,4.50
2023-11-12T08:31:47.033Z,3.55
2023-11-12T08:36:08.569Z,6.47
2023-11-12T08:39:32.323Z,5.68
2023-11-12T08:43:05.733Z,5.57
2023-11-12T08:50:55.944Z,4.38
2023-11-12T08:58:44.851Z,5.75
2023-11-12T09:01:18.809Z,6.15
2023-11-12T09:03:50.009Z,5.72
2023-11-12T09:06:17.648Z,6.32
2023-11-12T09:08:45.092Z,5.43
2023-11-12T09:11:15.903Z,4.45
2023-11-12T09:13:46.692Z,4.68
2023-11-12T09:16:14.647Z,4.60
2023-11-12T09:18:42.241Z,4.97
2023-11-12T09:21:12.588Z,5.68
2023-11-12T09:23:40.697Z,5.95
2023-11-12T09:26:09.345Z,4.53
2023-11-12T09:28:37.515Z,6.00
2023-11-12T09:31:08.017Z,6.97
2023-11-12T09:33:35.430Z,4.10
2023-11-12T09:36:12.577Z,6.35
2023-11-12T09:38:43.154Z,5.10
2023-11-12T09:41:11.561Z,4.43
2023-11-12T09:43:39.184Z,4.63
2023-11-12T09:46:08.574Z,5.78
2023-11-12T09:48:45.159Z,5.53
2023-11-12T09:51:15.106Z,5.32
2023-11-12T09:53:53.881Z,5.63
2023-11-12T09:56:26.299Z,6.07
2023-11-12T09:58:57.050Z,6.05
2023-11-12T10:01:25.924Z,5.63
2023-11-12T10:03:58.314Z,3.78
2023-11-12T10:06:32.428Z,5.63
2023-11-12T10:09:05.401Z,6.63
2023-11-12T10:11:33.059Z,4.80
2023-11-12T10:14:04.825Z,4.85
2023-11-12T10:16:34.088Z,6.53
2023-11-12T10:19:24.201Z,3.95
2023-11-12T10:22:00.270Z,5.85
2023-11-12T10:24:32.698Z,5.20
2023-11-12T10:27:09.805Z,5.82
2023-11-12T10:29:37.506Z,5.68
2023-11-12T10:32:09.460Z,5.15
2023-11-12T10:35:14.321Z,6.18
2023-11-12T10:39:01.393Z,5.43
2023-11-12T10:41:36.690Z,6.55
2023-11-12T10:44:11.907Z,5.95
2023-11-12T10:46:47.064Z,5.10
2023-11-12T10:49:16.321Z,5.00
2023-11-12T10:51:44.095Z,5.70
2023-11-12T10:54:16.428Z,4.13
2023-11-12T10:56:53.581Z,4.40
2023-11-12T10:59:23.113Z,5.30
2023-11-12T11:01:51.875Z,4.75
2023-11-12T11:04:21.738Z,4.93
2023-11-12T11:06:49.113Z,6.28
2023-11-12T11:09:16.595Z,4.15
2023-11-12T11:11:44.315Z,4.45
2023-11-12T11:14:32.207Z,5.55
2023-11-12T11:17:01.848Z,7.07
2023-11-12T11:19:44.718Z,5.47
2023-11-12T11:22:27.308Z,6.78
2023-11-12T11:24:56.589Z,5.93
2023-11-12T11:27:28.430Z,6.90
2023-11-12T11:30:17.717Z,6.30
2023-11-12T11:33:01.454Z,5.90
2023-11-12T11:35:30.382Z,7.78
2023-11-12T11:38:11.403Z,8.40
2023-11-12T11:40:41.434Z,7.10
2023-11-12T11:43:24.310Z,6.13
2023-11-12T11:46:10.889Z,7.75
2023-11-12T11:49:03.878Z,6.93
2023-11-12T11:51:36.973Z,6.95
2023-11-12T11:54:06.461Z,6.70
2023-11-12T11:56:35.441Z,8.07
2023-11-12T11:59:04.343Z,6.75
2023-11-12T12:01:43.550Z,6.57
2023-11-12T12:04:11.346Z,7.03
2023-11-12T12:06:48.913Z,6.32
2023-11-12T12:09:20.672Z,6.85
2023-11-12T12:11:50.018Z,7.38
2023-11-12T12:14:17.755Z,6.70
2023-11-12T12:16:46.727Z,9.10
2023-11-12T12:19:23.086Z,8.13
2023-11-12T12:21:52.397Z,8.93
2023-11-12T12:24:23.304Z,5.82
2023-11-12T12:26:51.842Z,8.10
2023-11-12T12:29:23.657Z,8.18
2023-11-12T12:31:55.188Z,7.90
2023-11-12T12:34:26.382Z,4.90
2023-11-12T12:37:09.372Z,8.02
2023-11-12T12:39:57.688Z,7.13
2023-11-12T12:42:29.187Z,7.90
2023-11-12T12:45:00.959Z,7.90
2023-11-12T12:47:35.139Z,9.30
2023-11-12T12:50:18.081Z,8.35
2023-11-12T12:53:37.128Z,6.18
2023-11-12T12:56:06.793Z,7.75
2023-11-12T12:58:41.147Z,7.85
2023-11-12T13:01:12.392Z,5.43
2023-11-12T13:03:42.645Z,8.75
2023-11-12T13:06:10.773Z,8.80
2023-11-12T13:09:01.206Z,11.52
2023-11-12T13:11:28.828Z,8.23
2023-11-12T13:16:42.694Z,13.57
2023-11-12T13:19:15.699Z,8.00
2023-11-12T13:24:22.364Z,9.60
2023-11-12T13:26:50.168Z,7.05
2023-11-12T13:29:17.804Z,7.68
2023-11-12T13:31:45.424Z,19.55
2023-11-12T13:34:15.353Z,19.17
2023-11-12T13:36:42.747Z,12.15
2023-11-12T13:39:15.219Z,18.02
2023-11-12T13:41:42.770Z,11.57
2023-11-12T13:44:11.154Z,29.42
2023-11-12T13:46:45.945Z,24.42
2023-11-12T13:49:17.314Z,23.23
2023-11-12T13:51:49.036Z,14.10
2023-11-12T13:54:16.613Z,12.27
2023-11-12T13:56:44.134Z,24.75
2023-11-12T13:59:13.794Z,17.58
2023-11-12T14:01:42.698Z,26.85
2023-11-12T14:04:11.277Z,17.00
2023-11-12T14:06:39.932Z,27.73
2023-11-12T14:09:13.276Z,25.98
2023-11-12T14:11:41.241Z,30.52
2023-11-12T14:14:08.959Z,21.33
2023-11-12T14:16:40.521Z,17.65
2023-11-12T14:19:12.130Z,10.60
2023-11-12T14:21:45.004Z,15.25
2023-11-12T14:24:13.503Z,7.90
2023-11-12T14:26:52.205Z,9.40
2023-11-12T14:29:27.124Z,8.50
2023-11-12T14:31:57.075Z,10.38
2023-11-12T14:34:24.762Z,7.40
2023-11-12T14:36:54.855Z,8.45
2023-11-12T14:39:27.706Z,7.00
2023-11-12T14:41:55.345Z,8.68
2023-11-12T14:44:22.961Z,8.00
2023-11-12T14:47:11.183Z,7.68
2023-11-12T14:49:38.718Z,6.35
2023-11-12T14:52:09.579Z,7.93
2023-11-12T14:54:37.372Z,7.38
2023-11-12T14:57:05.839Z,12.77
2023-11-12T14:59:33.414Z,9.00
2023-11-12T15:02:00.926Z,11.43
2023-11-12T15:04:28.433Z,13.63
2023-11-12T15:06:58.873Z,8.88
2023-11-12T15:09:26.278Z,10.75
2023-11-12T15:11:56.593Z,8.57
2023-11-12T15:14:26.139Z,19.75
2023-11-12T15:16:53.694Z,11.25
2023-11-12T15:19:21.332Z,24.98
2023-11-12T15:21:52.077Z,11.00
2023-11-12T15:24:20.568Z,32.35
2023-11-12T15:26:49.447Z,27.60
2023-11-12T15:29:35.697Z,21.85
2023-11-12T15:32:03.744Z,12.63
2023-11-12T15:34:31.496Z,25.20
2023-11-12T15:36:59.419Z,18.70
2023-11-12T15:39:46.073Z,21.45
2023-11-12T15:42:14.045Z,21.17
2023-11-12T15:44:42.111Z,16.05
2023-11-12T15:47:09.673Z,9.50
2023-11-12T15:49:38.007Z,19.80
2023-11-12T15:52:05.693Z,9.75
2023-11-12T15:54:33.218Z,10.52
2023-11-12T15:57:04.511Z,16.83
2023-11-12T15:59:32.150Z,14.07
2023-11-12T16:02:00.205Z,11.68
2023-11-12T16:04:27.878Z,13.18
2023-11-12T16:06:57.790Z,14.07
2023-11-12T16:09:25.448Z,10.95
2023-11-12T16:11:53.597Z,11.25
2023-11-12T16:14:39.787Z,11.45
2023-11-12T16:17:10.120Z,9.70
2023-11-12T16:19:41.136Z,11.30
2023-11-12T16:22:08.918Z,12.55
2023-11-12T16:24:36.390Z,11.77
2023-11-12T16:27:04.247Z,14.85
2023-11-12T16:29:31.834Z,26.52
2023-11-12T16:32:10.486Z,21.55
2023-11-12T16:34:39.283Z,33.53
2023-11-12T16:37:07.096Z,26.48
2023-11-12T16:39:46.329Z,9.48
2023-11-12T16:42:17.918Z,13.43
2023-11-12T16:44:46.594Z,11.60
2023-11-12T16:47:20.495Z,13.30
2023-11-12T16:50:10.875Z,10.25
2023-11-12T16:52:39.950Z,9.57
2023-11-12T16:55:08.154Z,14.35
2023-11-12T16:57:37.719Z,11.90
2023-11-12T17:00:07.582Z,12.00
2023-11-12T17:02:37.237Z,11.68
2023-11-12T17:05:06.496Z,11.85
2023-11-12T17:07:34.763Z,13.93
2023-11-12T17:10:06.015Z,11.45
2023-11-12T17:12:52.686Z,9.00
2023-11-12T17:15:21.132Z,13.23
2023-11-12T17:17:50.367Z,13.43
2023-11-12T17:20:31.785Z,13.45
2023-11-12T17:23:01.868Z,11.43
2023-11-12T17:25:32.072Z,13.13
2023-11-12T17:28:05.303Z,12.68
2023-11-12T17:30:37.175Z,11.05
2023-11-12T17:33:10.522Z,12.70
2023-11-12T17:35:40.448Z,13.52
2023-11-12T17:38:13.590Z,10.80
2023-11-12T17:40:44.452Z,14.20
2023-11-12T17:43:15.786Z,11.98
2023-11-12T17:45:48.347Z,10.88
2023-11-12T17:48:19.964Z,11.07
2023-11-12T17:50:48.176Z,10.82
2023-11-12T17:53:33.607Z,11.93
2023-11-12T17:56:01.627Z,11.95
2023-11-12T17:58:32.363Z,12.50
2023-11-12T18:01:08.671Z,11.30
2023-11-12T18:03:39.926Z,10.98
2023-11-12T18:06:10.592Z,11.70
2023-11-12T18:08:39.938Z,10.60
2023-11-12T18:11:11.135Z,11.00
2023-11-12T18:13:40.781Z,10.98
2023-11-12T18:16:10.412Z,9.10
2023-11-12T18:18:42.611Z,10.50
2023-11-12T18:21:13.661Z,11.50
2023-11-12T18:23:44.901Z,13.15
2023-11-12T18:26:15.861Z,10.90
2023-11-12T18:28:48.919Z,13.15
2023-11-12T18:33:52.386Z,10.90
2023-11-12T18:36:22.111Z,11.50
2023-11-12T18:38:52.232Z,12.07
2023-11-12T18:41:20.076Z,13.30
2023-11-12T18:43:50.658Z,9.63
2023-11-12T18:46:19.460Z,10.75
2023-11-12T18:49:02.966Z,10.27
2023-11-12T18:51:32.950Z,12.10
2023-11-12T18:54:01.556Z,11.35
2023-11-12T18:56:37.450Z,10.82
2023-11-12T18:59:10.449Z,11.88
2023-11-12T19:01:40.746Z,9.25
2023-11-12T19:04:08.895Z,10.27
2023-11-12T19:06:41.894Z,8.68
2023-11-12T19:09:14.030Z,9.43
2023-11-12T19:11:42.336Z,10.67
2023-11-12T19:14:16.578Z,9.23
2023-11-12T19:16:47.029Z,9.77
2023-11-12T19:19:22.259Z,8.27
2023-11-12T19:21:53.047Z,8.90
2023-11-12T19:24:31.260Z,9.00
2023-11-12T19:27:10.572Z,9.68
2023-11-12T19:29:49.465Z,5.22
2023-11-12T19:32:25.737Z,5.55
2023-11-12T19:35:14.940Z,5.45
2023-11-12T19:37:55.437Z,5.20
2023-11-12T19:40:26.900Z,3.50
2023-11-12T19:42:57.751Z,3.90
2023-11-12T19:45:29.850Z,2.63
2023-11-12T19:47:58.579Z,3.10
2023-11-12T19:50:36.468Z,3.30
2023-11-12T19:53:07.451Z,3.40
2023-11-12T19:55:37.664Z,2.30
2023-11-12T19:58:29.366Z,2.42
2023-11-12T20:00:58.768Z,1.67
2023-11-12T20:03:26.608Z,2.10
2023-11-12T20:05:55.629Z,2.40
2023-11-12T20:08:27.793Z,2.30
2023-11-12T20:10:57.844Z,2.30
2023-11-12T20:13:29.236Z,1.88
2023-11-12T20:15:59.131Z,2.10
2023-11-12T20:18:26.922Z,2.10
2023-11-12T20:20:55.638Z,2.22
2023-11-12T20:23:23.253Z,1.98
2023-11-12T20:25:50.673Z,1.98
2023-11-12T20:28:24.230Z,2.47
2023-11-12T20:30:54.710Z,2.22
2023-11-12T20:33:28.365Z,3.40
2023-11-12T20:36:07.056Z,1.95
2023-11-12T20:38:41.658Z,2.25
2023-11-12T20:41:09.759Z,2.55
2023-11-12T20:43:38.323Z,3.15
2023-11-12T20:46:06.761Z,3.13
2023-11-12T20:48:34.592Z,3.42
2023-11-12T20:51:03.511Z,1.98
2023-11-12T20:53:32.631Z,3.10
2023-11-12T20:56:00.016Z,2.50
2023-11-12T20:58:30.811Z,2.60
2023-11-12T21:01:00.137Z,2.85
2023-11-12T21:03:31.331Z,3.17
2023-11-12T21:05:59.982Z,2.63
2023-11-12T21:08:27.290Z,2.83
2023-11-12T21:10:54.746Z,2.38
2023-11-12T21:13:22.834Z,2.30
2023-11-12T21:15:53.871Z,2.53
2023-11-12T21:18:23.886Z,1.88
2023-11-12T21:20:51.735Z,2.00
2023-11-12T21:23:19.640Z,2.22
2023-11-12T21:25:47.337Z,2.25
2023-11-12T21:28:17.329Z,2.53
2023-11-12T21:30:49.232Z,3.00
2023-11-12T21:33:17.963Z,2.80
2023-11-12T21:35:54.584Z,2.63
2023-11-12T21:38:22.223Z,3.35
2023-11-12T21:40:49.605Z,2.90
2023-11-12T21:43:20.728Z,3.03
2023-11-12T21:45:50.229Z,3.28
2023-11-12T21:48:21.241Z,1.92
2023-11-12T21:50:53.490Z,2.28
2023-11-12T21:53:23.559Z,2.00
2023-11-12T21:55:52.073Z,2.63
2023-11-12T21:58:24.676Z,2.33
2023-11-12T22:00:53.414Z,2.30
2023-11-12T22:03:21.468Z,1.83
2023-11-12T22:05:48.945Z,2.13
2023-11-12T22:08:16.295Z,1.95
2023-11-12T22:10:49.439Z,1.48
2023-11-12T22:13:17.057Z,2.17
2023-11-12T22:15:45.282Z,2.10
2023-11-12T22:18:15.019Z,1.55
2023-11-12T22:20:43.149Z,2.38
2023-11-12T22:23:12.315Z,2.38
2023-11-12T22:25:40.365Z,2.50
2023-11-12T22:28:08.484Z,2.60
2023-11-12T22:30:38.283Z,2.60
2023-11-12T22:33:24.235Z,2.83
2023-11-12T22:35:51.549Z,2.85
2023-11-12T22:38:18.761Z,2.80
2023-11-12T22:40:46.096Z,3.17
2023-11-12T22:43:13.540Z,3.28
2023-11-12T22:45:43.526Z,2.80
2023-11-12T22:48:11.186Z,2.47
2023-11-12T22:50:39.205Z,2.85
2023-11-12T22:53:08.817Z,2.50
2023-11-12T22:55:36.476Z,3.97
2023-11-12T22:58:03.861Z,3.78
2023-11-12T23:00:51.175Z,3.50
2023-11-12T23:03:19.704Z,2.28
2023-11-12T23:05:48.758Z,1.80
2023-11-12T23:08:16.565Z,1.40
2023-11-12T23:10:48.797Z,1.73
2023-11-12T23:13:18.901Z,1.50
2023-11-12T23:15:46.694Z,1.10
2023-11-12T23:18:14.089Z,1.40
2023-11-12T23:20:45.670Z,2.15
2023-11-12T23:23:17.049Z,1.20
2023-11-12T23:25:44.677Z,1.95
2023-11-12T23:28:15.338Z,1.05
2023-11-12T23:30:44.538Z,0.98
2023-11-12T23:33:12.499Z,1.20
2023-11-12T23:35:39.835Z,1.10
2023-11-12T23:38:07.723Z,0.95
2023-11-12T23:40:35.093Z,1.15
2023-11-12T23:43:02.479Z,1.60
2023-11-12T23:45:29.988Z,2.22
2023-11-12T23:47:57.530Z,1.85
2023-11-12T23:50:27.082Z,1.33
2023-11-12T23:52:55.011Z,1.48
2023-11-12T23:55:23.040Z,1.00
2023-11-12T23:57:50.482Z,0.80
